createdAt,value
2023-02-12T06:37:46.307Z,5.62
2023-02-12T06:38:48.317Z,5.62
2023-02-12T06:39:50.337Z,5.62
2023-02-12T06:40:52.345Z,5.62
2023-02-12T06:41:54.343Z,5.62
2023-02-12T06:42:56.361Z,5.62
2023-02-12T06:43:58.386Z,5.62
2023-02-12T06:45:00.432Z,5.62
2023-02-12T06:46:02.475Z,11.25
2023-02-12T06:47:04.489Z,11.25
2023-02-12T06:48:06.544Z,11.25
2023-02-12T06:49:08.549Z,11.25
2023-02-12T06:50:10.616Z,11.25
2023-02-12T06:51:12.653Z,11.25
2023-02-12T06:52:14.657Z,11.25
2023-02-12T06:53:16.653Z,11.25
2023-02-12T06:54:18.688Z,11.25
2023-02-12T06:55:20.730Z,11.25
2023-02-12T06:56:22.755Z,11.25
2023-02-12T06:57:24.776Z,11.25
2023-02-12T06:58:26.797Z,16.87
2023-02-12T06:59:28.907Z,16.87
2023-02-12T07:00:31.006Z,16.87
2023-02-12T07:01:33.049Z,16.87
2023-02-12T07:02:37.346Z,16.87
2023-02-12T07:03:36.288Z,16.87
2023-02-12T07:04:38.267Z,16.87
2023-02-12T07:05:40.309Z,16.87
2023-02-12T07:06:42.343Z,16.87
2023-02-12T07:07:44.354Z,16.87
2023-02-12T07:08:46.364Z,22.50
2023-02-12T07:09:48.395Z,22.50
2023-02-12T07:10:50.416Z,22.50
2023-02-12T07:11:52.455Z,22.50
2023-02-12T07:12:54.478Z,22.50
2023-02-12T07:13:56.492Z,22.50
2023-02-12T07:14:58.502Z,16.87
2023-02-12T07:16:00.575Z,16.87
2023-02-12T07:17:02.584Z,22.50
2023-02-12T07:18:04.583Z,22.50
2023-02-12T07:19:06.609Z,28.12
2023-02-12T07:20:08.619Z,33.75
2023-02-12T07:21:10.634Z,39.37
2023-02-12T07:22:12.669Z,39.37
2023-02-12T07:23:14.689Z,45.00
2023-02-12T07:24:16.704Z,45.00
2023-02-12T07:25:18.735Z,39.37
2023-02-12T07:26:20.802Z,39.37
2023-02-12T07:27:22.782Z,45.00
2023-02-12T07:28:24.901Z,45.00
2023-02-12T07:29:26.897Z,39.37
2023-02-12T07:30:28.982Z,39.37
2023-02-12T07:31:31.182Z,33.75
2023-02-12T07:32:32.133Z,33.75
2023-02-12T07:33:34.143Z,33.75
2023-02-12T07:34:36.173Z,33.75
2023-02-12T07:35:38.186Z,33.75
2023-02-12T07:36:40.224Z,39.37
2023-02-12T07:37:43.212Z,39.37
2023-02-12T07:38:44.132Z,39.37
2023-02-12T07:39:46.164Z,33.75
2023-02-12T07:40:48.204Z,33.75
2023-02-12T07:41:50.224Z,33.75
2023-02-12T07:42:52.255Z,39.37
2023-02-12T07:43:54.316Z,33.75
2023-02-12T07:44:56.320Z,33.75
2023-02-12T07:45:58.626Z,33.75
2023-02-12T07:46:59.705Z,33.75
2023-02-12T07:48:01.761Z,33.75
2023-02-12T07:49:03.777Z,28.12
2023-02-12T07:50:05.784Z,28.12
2023-02-12T07:51:07.792Z,28.12
2023-02-12T07:52:12.909Z,33.75
2023-02-12T07:53:11.965Z,33.75
2023-02-12T07:54:13.974Z,33.75
2023-02-12T07:55:15.975Z,33.75
2023-02-12T07:56:18.009Z,33.75
2023-02-12T07:57:20.052Z,39.37
2023-02-12T07:58:22.076Z,39.37
2023-02-12T07:59:24.114Z,39.37
2023-02-12T08:00:26.144Z,39.37
2023-02-12T08:01:28.171Z,39.37
2023-02-12T08:02:30.265Z,39.37
2023-02-12T08:03:32.305Z,39.37
2023-02-12T08:04:34.323Z,39.37
2023-02-12T08:05:36.349Z,39.37
2023-02-12T08:06:38.361Z,45.00
2023-02-12T08:07:40.412Z,50.62
2023-02-12T08:08:42.461Z,50.62
2023-02-12T08:09:44.507Z,56.25
2023-02-12T08:10:46.510Z,61.87
2023-02-12T08:11:48.566Z,67.50
2023-02-12T08:12:50.596Z,73.12
2023-02-12T08:13:52.626Z,67.50
2023-02-12T08:14:54.662Z,73.12
2023-02-12T08:15:57.013Z,73.12
2023-02-12T08:16:58.073Z,73.12
2023-02-12T08:18:00.153Z,78.75
2023-02-12T08:19:15.427Z,78.75
2023-02-12T08:20:03.568Z,84.37
2023-02-12T08:21:06.193Z,78.75
2023-02-12T08:22:07.128Z,78.75
2023-02-12T08:23:09.146Z,73.12
2023-02-12T08:24:11.162Z,73.12
2023-02-12T08:25:13.187Z,73.12
2023-02-12T08:26:15.200Z,73.12
2023-02-12T08:27:17.216Z,73.12
2023-02-12T08:28:19.275Z,78.75
2023-02-12T08:29:21.312Z,84.37
2023-02-12T08:30:23.323Z,90.00
2023-02-12T08:31:25.545Z,90.00
2023-02-12T08:32:26.517Z,90.00
2023-02-12T08:33:28.554Z,95.62
2023-02-12T08:34:30.585Z,95.62
2023-02-12T08:35:32.619Z,95.62
2023-02-12T08:36:34.630Z,95.62
2023-02-12T08:37:36.662Z,101.25
2023-02-12T08:38:38.662Z,95.62
2023-02-12T08:39:40.672Z,95.62
2023-02-12T08:40:42.697Z,101.25
2023-02-12T08:41:44.694Z,101.25
2023-02-12T08:42:46.725Z,106.87
2023-02-12T08:43:48.744Z,118.12
2023-02-12T08:44:50.773Z,118.12
2023-02-12T08:45:52.922Z,118.12
2023-02-12T08:46:53.890Z,123.75
2023-02-12T08:47:55.905Z,118.12
2023-02-12T08:48:57.946Z,118.12
2023-02-12T08:49:59.972Z,118.12
2023-02-12T08:51:02.033Z,129.37
2023-02-12T08:52:04.059Z,135.00
2023-02-12T08:53:06.051Z,146.25
2023-02-12T08:54:08.138Z,163.12
2023-02-12T08:55:10.139Z,168.75
2023-02-12T08:56:12.152Z,163.12
2023-02-12T08:57:14.182Z,157.50
2023-02-12T08:58:16.226Z,151.87
2023-02-12T08:59:18.289Z,146.25
2023-02-12T09:00:20.289Z,151.87
2023-02-12T09:01:22.321Z,157.50
2023-02-12T09:02:24.374Z,174.37
2023-02-12T09:03:26.374Z,163.12
2023-02-12T09:04:28.417Z,168.75
2023-02-12T09:05:30.474Z,180.00
2023-02-12T09:06:32.497Z,191.25
2023-02-12T09:07:34.507Z,202.50
2023-02-12T09:08:36.537Z,196.87
2023-02-12T09:09:38.574Z,191.25
2023-02-12T09:10:40.564Z,185.62
2023-02-12T09:11:42.600Z,185.62
2023-02-12T09:12:44.622Z,185.62
2023-02-12T09:13:46.634Z,191.25
2023-02-12T09:14:48.640Z,185.62
2023-02-12T09:15:50.692Z,180.00
2023-02-12T09:16:52.747Z,185.62
2023-02-12T09:17:54.756Z,191.25
2023-02-12T09:18:56.781Z,202.50
2023-02-12T09:19:58.815Z,230.62
2023-02-12T09:21:00.837Z,236.25
2023-02-12T09:22:02.845Z,236.25
2023-02-12T09:23:04.871Z,241.87
2023-02-12T09:24:06.881Z,230.62
2023-02-12T09:25:08.902Z,219.37
2023-02-12T09:26:10.919Z,219.37
2023-02-12T09:27:12.955Z,247.50
2023-02-12T09:28:15.011Z,264.37
2023-02-12T09:29:17.026Z,230.62
2023-02-12T09:30:19.088Z,219.37
2023-02-12T09:31:21.225Z,225.00
2023-02-12T09:32:23.272Z,202.50
2023-02-12T09:33:25.305Z,208.12
2023-02-12T09:34:27.338Z,174.37
2023-02-12T09:35:29.366Z,163.12
2023-02-12T09:36:31.383Z,151.87
2023-02-12T09:37:33.418Z,151.87
2023-02-12T09:38:35.432Z,151.87
2023-02-12T09:39:37.444Z,140.62
2023-02-12T09:40:39.482Z,135.00
2023-02-12T09:41:41.501Z,151.87
2023-02-12T09:42:43.582Z,146.25
2023-02-12T09:43:45.621Z,146.25
2023-02-12T09:44:47.709Z,151.87
2023-02-12T09:45:51.334Z,135.00
2023-02-12T09:46:51.268Z,157.50
2023-02-12T09:47:53.287Z,163.12
2023-02-12T09:48:55.294Z,163.12
2023-02-12T09:49:57.323Z,140.62
2023-02-12T09:50:59.378Z,129.37
2023-02-12T09:52:01.437Z,146.25
2023-02-12T09:53:03.411Z,151.87
2023-02-12T09:54:05.449Z,129.37
2023-02-12T09:55:07.493Z,118.12
2023-02-12T09:56:09.544Z,118.12
2023-02-12T09:57:11.577Z,106.87
2023-02-12T09:58:13.586Z,112.50
2023-02-12T09:59:15.606Z,123.75
2023-02-12T10:00:17.662Z,112.50
2023-02-12T10:01:19.787Z,106.87
2023-02-12T10:02:21.796Z,90.00
2023-02-12T10:03:23.821Z,95.62
2023-02-12T10:04:25.871Z,90.00
2023-02-12T10:05:27.872Z,95.62
2023-02-12T10:06:29.922Z,101.25
2023-02-12T10:07:31.952Z,106.87
2023-02-12T10:08:33.950Z,90.00
2023-02-12T10:09:35.967Z,101.25
2023-02-12T10:10:37.969Z,112.50
2023-02-12T10:11:40.019Z,112.50
2023-02-12T10:12:42.044Z,123.75
2023-02-12T10:13:44.052Z,112.50
2023-02-12T10:14:46.085Z,112.50
2023-02-12T10:15:48.181Z,95.62
2023-02-12T10:16:50.176Z,106.87
2023-02-12T10:17:52.209Z,101.25
2023-02-12T10:18:54.242Z,95.62
2023-02-12T10:19:56.247Z,101.25
2023-02-12T10:20:58.675Z,112.50
2023-02-12T10:21:59.693Z,106.87
2023-02-12T10:23:01.690Z,118.12
2023-02-12T10:24:03.730Z,163.12
2023-02-12T10:25:05.761Z,196.87
2023-02-12T10:26:07.814Z,213.75
2023-02-12T10:27:09.829Z,213.75
2023-02-12T10:28:11.858Z,163.12
2023-02-12T10:29:14.639Z,140.62
2023-02-12T10:30:15.572Z,129.37
2023-02-12T10:31:17.683Z,146.25
2023-02-12T10:32:19.737Z,208.12
2023-02-12T10:33:21.771Z,174.37
2023-02-12T10:34:23.793Z,157.50
2023-02-12T10:35:25.801Z,185.62
2023-02-12T10:36:27.813Z,241.87
2023-02-12T10:37:29.862Z,225.00
2023-02-12T10:38:31.869Z,281.25
2023-02-12T10:39:33.896Z,298.12
2023-02-12T10:40:35.898Z,309.37
2023-02-12T10:41:37.913Z,303.75
2023-02-12T10:42:39.920Z,258.75
2023-02-12T10:43:41.935Z,354.37
2023-02-12T10:44:43.964Z,281.25
2023-02-12T10:45:45.977Z,258.75
2023-02-12T10:46:47.997Z,247.50
2023-02-12T10:47:50.008Z,213.75
2023-02-12T10:48:52.038Z,191.25
2023-02-12T10:49:54.047Z,185.62
2023-02-12T10:50:56.055Z,163.12
2023-02-12T10:51:58.080Z,174.37
2023-02-12T10:53:00.109Z,191.25
2023-02-12T10:54:02.680Z,191.25
2023-02-12T10:55:03.557Z,168.75
2023-02-12T10:56:05.569Z,140.62
2023-02-12T10:57:07.600Z,146.25
2023-02-12T10:58:20.206Z,135.00
2023-02-12T10:59:11.213Z,129.37
2023-02-12T11:00:13.221Z,118.12
2023-02-12T11:01:15.236Z,140.62
2023-02-12T11:02:17.287Z,213.75
2023-02-12T11:03:19.303Z,230.62
2023-02-12T11:04:21.316Z,219.37
2023-02-12T11:05:23.341Z,225.00
2023-02-12T11:06:25.364Z,303.75
2023-02-12T11:07:27.378Z,365.62
2023-02-12T11:08:29.412Z,376.87
2023-02-12T11:09:31.454Z,354.37
2023-02-12T11:10:33.522Z,365.62
2023-02-12T11:11:35.564Z,303.75
2023-02-12T11:12:37.615Z,191.25
2023-02-12T11:13:39.628Z,140.62
2023-02-12T11:14:41.662Z,106.87
2023-02-12T11:15:43.686Z,123.75
2023-02-12T11:16:45.701Z,129.37
2023-02-12T11:17:47.735Z,123.75
2023-02-12T11:18:49.770Z,151.87
2023-02-12T11:19:51.790Z,146.25
2023-02-12T11:20:53.795Z,123.75
2023-02-12T11:21:55.806Z,112.50
2023-02-12T11:22:57.829Z,112.50
2023-02-12T11:23:59.844Z,123.75
2023-02-12T11:25:01.882Z,146.25
2023-02-12T11:26:03.931Z,146.25
2023-02-12T11:27:05.950Z,118.12
2023-02-12T11:28:08.039Z,112.50
2023-02-12T11:29:10.327Z,118.12
2023-02-12T11:30:11.272Z,135.00
2023-02-12T11:31:13.402Z,135.00
2023-02-12T11:32:15.445Z,135.00
2023-02-12T11:33:17.487Z,151.87
2023-02-12T11:34:19.501Z,180.00
2023-02-12T11:35:21.539Z,185.62
2023-02-12T11:36:23.542Z,202.50
2023-02-12T11:37:25.578Z,213.75
2023-02-12T11:38:27.591Z,168.75
2023-02-12T11:39:29.593Z,123.75
2023-02-12T11:40:31.654Z,112.50
2023-02-12T11:41:33.689Z,106.87
2023-02-12T11:42:35.698Z,95.62
2023-02-12T11:43:37.707Z,101.25
2023-02-12T11:44:39.715Z,123.75
2023-02-12T11:45:41.750Z,151.87
2023-02-12T11:46:43.808Z,163.12
2023-02-12T11:47:45.860Z,180.00
2023-02-12T11:48:47.880Z,208.12
2023-02-12T11:49:49.893Z,213.75
2023-02-12T11:50:51.910Z,191.25
2023-02-12T11:51:53.937Z,185.62
2023-02-12T11:52:55.949Z,185.62
2023-02-12T11:53:57.955Z,168.75
2023-02-12T11:54:59.964Z,151.87
2023-02-12T11:56:02.253Z,146.25
2023-02-12T11:57:03.344Z,146.25
2023-02-12T11:58:05.363Z,140.62
2023-02-12T11:59:07.394Z,140.62
2023-02-12T12:00:09.403Z,157.50
2023-02-12T12:01:11.467Z,168.75
2023-02-12T12:02:13.543Z,174.37
2023-02-12T12:03:15.628Z,168.75
2023-02-12T12:04:17.632Z,157.50
2023-02-12T12:05:19.658Z,129.37
2023-02-12T12:06:21.698Z,123.75
2023-02-12T12:07:23.720Z,123.75
2023-02-12T12:08:25.739Z,129.37
2023-02-12T12:09:27.779Z,135.00
2023-02-12T12:10:29.799Z,151.87
2023-02-12T12:11:31.822Z,163.12
2023-02-12T12:12:33.843Z,151.87
2023-02-12T12:13:35.831Z,123.75
2023-02-12T12:14:37.859Z,112.50
2023-02-12T12:15:39.897Z,101.25
2023-02-12T12:16:41.962Z,90.00
2023-02-12T12:17:44.003Z,101.25
2023-02-12T12:18:46.037Z,101.25
2023-02-12T12:19:48.053Z,84.37
2023-02-12T12:20:50.072Z,78.75
2023-02-12T12:21:52.088Z,78.75
2023-02-12T12:22:54.092Z,78.75
2023-02-12T12:23:56.103Z,78.75
2023-02-12T12:24:58.131Z,78.75
2023-02-12T12:26:00.160Z,73.12
2023-02-12T12:27:02.207Z,73.12
2023-02-12T12:28:04.268Z,78.75
2023-02-12T12:29:06.278Z,78.75
2023-02-12T12:30:10.345Z,78.75
2023-02-12T12:31:09.960Z,78.75
2023-02-12T12:32:11.972Z,78.75
2023-02-12T12:33:14.005Z,78.75
2023-02-12T12:34:16.003Z,73.12
2023-02-12T12:35:18.011Z,73.12
2023-02-12T12:36:20.044Z,73.12
2023-02-12T12:37:22.091Z,78.75
2023-02-12T12:38:24.142Z,84.37
2023-02-12T12:39:26.155Z,90.00
2023-02-12T12:40:28.185Z,84.37
2023-02-12T12:41:30.216Z,84.37
2023-02-12T12:42:32.306Z,78.75
2023-02-12T12:43:34.310Z,78.75
2023-02-12T12:44:36.325Z,67.50
2023-02-12T12:45:38.369Z,61.87
2023-02-12T12:46:40.376Z,67.50
2023-02-12T12:47:42.393Z,67.50
2023-02-12T12:48:44.448Z,78.75
2023-02-12T12:49:46.458Z,90.00
2023-02-12T12:50:48.505Z,90.00
2023-02-12T12:51:50.529Z,90.00
2023-02-12T12:52:52.570Z,106.87
2023-02-12T12:53:54.580Z,101.25
2023-02-12T12:54:56.624Z,90.00
2023-02-12T12:55:58.935Z,84.37
2023-02-12T12:56:59.955Z,73.12
2023-02-12T12:58:01.978Z,84.37
2023-02-12T12:59:03.991Z,84.37
2023-02-12T13:00:06.005Z,84.37
2023-02-12T13:01:08.009Z,90.00
2023-02-12T13:02:10.126Z,84.37
2023-02-12T13:03:12.165Z,78.75
2023-02-12T13:04:14.171Z,67.50
2023-02-12T13:05:16.177Z,67.50
2023-02-12T13:06:18.208Z,67.50
2023-02-12T13:07:20.270Z,84.37
2023-02-12T13:08:22.432Z,84.37
2023-02-12T13:09:24.416Z,78.75
2023-02-12T13:10:26.449Z,73.12
2023-02-12T13:11:29.837Z,67.50
2023-02-12T13:12:29.675Z,67.50
2023-02-12T13:13:31.691Z,73.12
2023-02-12T13:14:33.718Z,73.12
2023-02-12T13:15:35.730Z,73.12
2023-02-12T13:16:37.780Z,73.12
2023-02-12T13:17:39.835Z,73.12
2023-02-12T13:18:41.873Z,67.50
2023-02-12T13:19:43.903Z,67.50
2023-02-12T13:20:45.975Z,67.50
2023-02-12T13:21:47.955Z,67.50
2023-02-12T13:22:49.969Z,67.50
2023-02-12T13:23:52.013Z,67.50
2023-02-12T13:24:54.035Z,67.50
2023-02-12T13:25:56.305Z,67.50
2023-02-12T13:26:57.320Z,67.50
2023-02-12T13:27:59.386Z,73.12
2023-02-12T13:29:01.617Z,73.12
2023-02-12T13:30:02.582Z,73.12
2023-02-12T13:31:09.485Z,78.75
2023-02-12T13:32:06.182Z,90.00
2023-02-12T13:33:07.139Z,106.87
2023-02-12T13:34:09.162Z,112.50
2023-02-12T13:35:11.176Z,129.37
2023-02-12T13:36:13.208Z,135.00
2023-02-12T13:37:15.234Z,157.50
2023-02-12T13:38:17.237Z,174.37
2023-02-12T13:39:19.278Z,196.87
2023-02-12T13:40:21.310Z,146.25
2023-02-12T13:41:23.305Z,157.50
2023-02-12T13:42:25.314Z,180.00
2023-02-12T13:43:27.323Z,208.12
2023-02-12T13:44:29.371Z,219.37
2023-02-12T13:45:31.372Z,213.75
2023-02-12T13:46:33.422Z,213.75
2023-02-12T13:47:35.444Z,191.25
2023-02-12T13:48:37.471Z,157.50
2023-02-12T13:49:39.512Z,140.62
2023-02-12T13:50:41.533Z,123.75
2023-02-12T13:51:43.547Z,112.50
2023-02-12T13:52:45.571Z,106.87
2023-02-12T13:53:47.584Z,106.87
2023-02-12T13:54:49.599Z,106.87
2023-02-12T13:55:51.630Z,112.50
2023-02-12T13:56:53.640Z,101.25
2023-02-12T13:57:55.690Z,90.00
2023-02-12T13:58:57.699Z,90.00
2023-02-12T13:59:59.740Z,90.00
2023-02-12T14:01:01.806Z,140.62
2023-02-12T14:02:03.945Z,157.50
2023-02-12T14:03:05.963Z,146.25
2023-02-12T14:04:08.005Z,168.75
2023-02-12T14:05:10.106Z,163.12
2023-02-12T14:06:12.120Z,146.25
2023-02-12T14:07:14.120Z,140.62
2023-02-12T14:08:16.175Z,140.62
2023-02-12T14:09:18.306Z,118.12
2023-02-12T14:10:20.348Z,101.25
2023-02-12T14:11:22.374Z,90.00
2023-02-12T14:12:24.396Z,84.37
2023-02-12T14:13:26.420Z,84.37
2023-02-12T14:14:28.426Z,106.87
2023-02-12T14:15:30.481Z,118.12
2023-02-12T14:16:32.483Z,118.12
2023-02-12T14:17:34.513Z,135.00
2023-02-12T14:18:36.544Z,146.25
2023-02-12T14:19:38.560Z,168.75
2023-02-12T14:20:40.609Z,168.75
2023-02-12T14:21:42.628Z,168.75
2023-02-12T14:22:44.666Z,157.50
2023-02-12T14:23:46.696Z,157.50
2023-02-12T14:24:48.709Z,151.87
2023-02-12T14:25:50.716Z,151.87
2023-02-12T14:26:52.755Z,140.62
2023-02-12T14:27:54.779Z,135.00
2023-02-12T14:28:56.789Z,123.75
2023-02-12T14:29:58.802Z,112.50
2023-02-12T14:31:00.919Z,101.25
2023-02-12T14:32:03.141Z,101.25
2023-02-12T14:33:04.200Z,101.25
2023-02-12T14:34:06.227Z,95.62
2023-02-12T14:35:08.227Z,84.37
2023-02-12T14:36:10.246Z,78.75
2023-02-12T14:37:12.276Z,73.12
2023-02-12T14:38:14.342Z,84.37
2023-02-12T14:39:16.364Z,95.62
2023-02-12T14:40:18.398Z,101.25
2023-02-12T14:41:20.438Z,106.87
2023-02-12T14:42:22.447Z,112.50
2023-02-12T14:43:24.452Z,106.87
2023-02-12T14:44:26.470Z,90.00
2023-02-12T14:45:28.479Z,95.62
2023-02-12T14:46:30.556Z,112.50
2023-02-12T14:47:32.565Z,123.75
2023-02-12T14:48:34.560Z,129.37
2023-02-12T14:49:36.572Z,112.50
2023-02-12T14:50:38.581Z,112.50
2023-02-12T14:51:40.621Z,112.50
2023-02-12T14:52:42.656Z,95.62
2023-02-12T14:53:44.667Z,78.75
2023-02-12T14:54:46.709Z,73.12
2023-02-12T14:55:48.707Z,67.50
2023-02-12T14:56:50.761Z,67.50
2023-02-12T14:57:52.786Z,67.50
2023-02-12T14:58:54.966Z,61.87
2023-02-12T14:59:56.979Z,56.25
2023-02-12T15:00:58.988Z,56.25
2023-02-12T15:02:01.006Z,56.25
2023-02-12T15:03:03.018Z,61.87
2023-02-12T15:04:05.048Z,73.12
2023-02-12T15:05:07.084Z,73.12
2023-02-12T15:06:09.104Z,73.12
2023-02-12T15:07:11.158Z,78.75
2023-02-12T15:08:13.173Z,78.75
2023-02-12T15:09:15.187Z,78.75
2023-02-12T15:10:17.222Z,73.12
2023-02-12T15:11:19.251Z,78.75
2023-02-12T15:12:21.240Z,73.12
2023-02-12T15:13:23.229Z,67.50
2023-02-12T15:14:25.241Z,56.25
2023-02-12T15:15:27.258Z,50.62
2023-02-12T15:16:29.379Z,56.25
2023-02-12T15:17:31.431Z,61.87
2023-02-12T15:18:33.465Z,67.50
2023-02-12T15:19:35.496Z,61.87
2023-02-12T15:20:37.506Z,50.62
2023-02-12T15:21:39.536Z,45.00
2023-02-12T15:22:41.596Z,45.00
2023-02-12T15:23:43.599Z,45.00
2023-02-12T15:24:45.609Z,50.62
2023-02-12T15:25:47.641Z,50.62
2023-02-12T15:26:49.657Z,50.62
2023-02-12T15:27:51.700Z,45.00
2023-02-12T15:28:53.711Z,39.37
2023-02-12T15:29:55.751Z,39.37
2023-02-12T15:30:57.908Z,39.37
2023-02-12T15:32:00.074Z,39.37
2023-02-12T15:33:02.104Z,33.75
2023-02-12T15:34:04.154Z,22.50
2023-02-12T15:35:06.151Z,22.50
2023-02-12T15:36:08.164Z,22.50
2023-02-12T15:37:10.180Z,16.87
2023-02-12T15:38:12.361Z,16.87
2023-02-12T15:39:14.362Z,16.87
2023-02-12T15:40:16.377Z,22.50
2023-02-12T15:41:18.394Z,22.50
2023-02-12T15:42:20.405Z,22.50
2023-02-12T15:43:22.411Z,22.50
2023-02-12T15:44:24.430Z,22.50
2023-02-12T15:45:26.464Z,22.50
2023-02-12T15:46:28.581Z,16.87
2023-02-12T15:47:30.561Z,16.87
2023-02-12T15:48:32.574Z,16.87
2023-02-12T15:49:34.586Z,16.87
2023-02-12T15:50:36.666Z,22.50
2023-02-12T15:51:38.686Z,22.50
2023-02-12T15:52:40.704Z,22.50
2023-02-12T15:53:42.744Z,22.50
2023-02-12T15:54:44.773Z,22.50
2023-02-12T15:55:46.819Z,22.50
2023-02-12T15:56:48.815Z,16.87
2023-02-12T15:57:50.822Z,22.50
2023-02-12T15:58:52.850Z,22.50
2023-02-12T15:59:54.864Z,16.87
2023-02-12T16:00:56.896Z,16.87
2023-02-12T16:01:58.977Z,11.25
2023-02-12T16:03:00.973Z,11.25
2023-02-12T16:04:03.100Z,11.25
2023-02-12T16:05:15.285Z,11.25
2023-02-12T16:06:06.309Z,11.25
2023-02-12T16:07:08.340Z,11.25
2023-02-12T16:08:10.351Z,11.25
2023-02-12T16:09:12.419Z,5.62
2023-02-12T16:10:14.430Z,5.62
2023-02-12T16:11:16.463Z,5.62
2023-02-12T16:12:18.563Z,5.62
2023-02-12T16:13:20.556Z,5.62
2023-02-12T16:14:22.599Z,5.62
